sensor_id;sensor_type;location;lat;lon;timestamp;temperature;humidity
5842;DHT22;2947;52.276;9.946;2022-12-13T00:00:44;-5.20;99.90
5842;DHT22;2947;52.276;9.946;2022-12-13T00:03:10;-5.20;99.90
5842;DHT22;2947;52.276;9.946;2022-12-13T00:05:42;-5.20;99.90
5842;DHT22;2947;52.276;9.946;2022-12-13T00:08:08;-5.20;99.90
5842;DHT22;2947;52.276;9.946;2022-12-13T00:10:34;-5.20;99.90
5842;DHT22;2947;52.276;9.946;2022-12-13T00:13:00;-5.20;99.90
5842;DHT22;2947;52.276;9.946;2022-12-13T00:15:25;-5.20;99.90
5842;DHT22;2947;52.276;9.946;2022-12-13T00:17:51;-5.20;99.90
5842;DHT22;2947;52.276;9.946;2022-12-13T00:20:17;-5.20;99.90
5842;DHT22;2947;52.276;9.946;2022-12-13T00:22:42;-5.30;99.90
5842;DHT22;2947;52.276;9.946;2022-12-13T00:25:08;-5.20;99.90
5842;DHT22;2947;52.276;9.946;2022-12-13T00:27:34;-5.20;99.90
5842;DHT22;2947;52.276;9.946;2022-12-13T00:29:59;-5.20;99.90
5842;DHT22;2947;52.276;9.946;2022-12-13T00:32:25;-5.20;99.90
5842;DHT22;2947;52.276;9.946;2022-12-13T00:34:50;-5.20;99.90
5842;DHT22;2947;52.276;9.946;2022-12-13T00:37:16;-5.20;99.90
5842;DHT22;2947;52.276;9.946;2022-12-13T00:39:42;-5.20;99.90
5842;DHT22;2947;52.276;9.946;2022-12-13T00:42:08;-5.20;99.90
5842;DHT22;2947;52.276;9.946;2022-12-13T00:44:33;-5.30;99.90
5842;DHT22;2947;52.276;9.946;2022-12-13T00:46:59;-5.30;99.90
5842;DHT22;2947;52.276;9.946;2022-12-13T00:49:25;-5.30;99.90
5842;DHT22;2947;52.276;9.946;2022-12-13T00:51:51;-5.40;99.90
5842;DHT22;2947;52.276;9.946;2022-12-13T00:54:17;-5.40;99.90
5842;DHT22;2947;52.276;9.946;2022-12-13T00:56:43;-5.40;99.90
5842;DHT22;2947;52.276;9.946;2022-12-13T00:59:12;-5.50;99.90
5842;DHT22;2947;52.276;9.946;2022-12-13T01:01:39;-5.50;99.90
5842;DHT22;2947;52.276;9.946;2022-12-13T01:04:05;-5.60;99.90
5842;DHT22;2947;52.276;9.946;2022-12-13T01:06:44;-5.60;99.90
5842;DHT22;2947;52.276;9.946;2022-12-13T01:09:19;-5.60;99.90
5842;DHT22;2947;52.276;9.946;2022-12-13T01:11:48;-5.60;99.90
5842;DHT22;2947;52.276;9.946;2022-12-13T01:14:15;-5.60;99.90
5842;DHT22;2947;52.276;9.946;2022-12-13T01:16:42;-5.60;99.90
5842;DHT22;2947;52.276;9.946;2022-12-13T01:19:08;-5.70;99.90
5842;DHT22;2947;52.276;9.946;2022-12-13T01:21:33;-5.70;99.90
5842;DHT22;2947;52.276;9.946;2022-12-13T01:24:01;-5.80;99.90
5842;DHT22;2947;52.276;9.946;2022-12-13T01:26:28;-5.80;99.90
5842;DHT22;2947;52.276;9.946;2022-12-13T01:28:54;-5.80;99.90
5842;DHT22;2947;52.276;9.946;2022-12-13T01:31:20;-5.80;99.90
5842;DHT22;2947;52.276;9.946;2022-12-13T01:33:47;-5.80;99.90
5842;DHT22;2947;52.276;9.946;2022-12-13T01:36:15;-5.80;99.90
5842;DHT22;2947;52.276;9.946;2022-12-13T01:38:43;-5.80;99.90
5842;DHT22;2947;52.276;9.946;2022-12-13T01:41:16;-5.80;99.90
5842;DHT22;2947;52.276;9.946;2022-12-13T01:46:14;-5.70;99.90
5842;DHT22;2947;52.276;9.946;2022-12-13T01:48:45;-5.70;99.90
5842;DHT22;2947;52.276;9.946;2022-12-13T01:51:15;-5.70;99.90
5842;DHT22;2947;52.276;9.946;2022-12-13T01:53:43;-5.70;99.90
5842;DHT22;2947;52.276;9.946;2022-12-13T01:56:22;-5.70;99.90
5842;DHT22;2947;52.276;9.946;2022-12-13T01:58:59;-5.70;99.90
5842;DHT22;2947;52.276;9.946;2022-12-13T02:01:26;-5.70;99.90
5842;DHT22;2947;52.276;9.946;2022-12-13T02:03:52;-5.70;99.90
5842;DHT22;2947;52.276;9.946;2022-12-13T02:06:29;-5.70;99.90
5842;DHT22;2947;52.276;9.946;2022-12-13T02:08:59;-5.70;99.90
5842;DHT22;2947;52.276;9.946;2022-12-13T02:11:26;-5.70;99.90
5842;DHT22;2947;52.276;9.946;2022-12-13T02:13:52;-5.70;99.90
5842;DHT22;2947;52.276;9.946;2022-12-13T02:19:32;-5.70;99.90
5842;DHT22;2947;52.276;9.946;2022-12-13T02:25:47;-5.70;99.90
5842;DHT22;2947;52.276;9.946;2022-12-13T02:31:54;-5.70;99.90
5842;DHT22;2947;52.276;9.946;2022-12-13T02:34:35;-5.70;99.90
5842;DHT22;2947;52.276;9.946;2022-12-13T02:40:59;-5.70;99.90
5842;DHT22;2947;52.276;9.946;2022-12-13T02:43:17;-5.70;99.90
5842;DHT22;2947;52.276;9.946;2022-12-13T02:45:54;-5.70;99.90
5842;DHT22;2947;52.276;9.946;2022-12-13T02:48:27;-5.80;99.90
5842;DHT22;2947;52.276;9.946;2022-12-13T02:50:58;-5.70;99.90
5842;DHT22;2947;52.276;9.946;2022-12-13T02:53:25;-5.70;99.90
5842;DHT22;2947;52.276;9.946;2022-12-13T02:55:51;-5.80;99.90
5842;DHT22;2947;52.276;9.946;2022-12-13T02:58:22;-5.80;99.90
5842;DHT22;2947;52.276;9.946;2022-12-13T03:18:06;-5.90;99.90
5842;DHT22;2947;52.276;9.946;2022-12-13T03:20:48;-5.90;99.90
5842;DHT22;2947;52.276;9.946;2022-12-13T03:23:18;-5.90;99.90
5842;DHT22;2947;52.276;9.946;2022-12-13T03:25:46;-6.00;99.90
5842;DHT22;2947;52.276;9.946;2022-12-13T03:28:14;-6.00;99.90
5842;DHT22;2947;52.276;9.946;2022-12-13T03:30:40;-6.00;99.90
5842;DHT22;2947;52.276;9.946;2022-12-13T03:33:06;-6.00;99.90
5842;DHT22;2947;52.276;9.946;2022-12-13T03:35:32;-6.00;99.90
5842;DHT22;2947;52.276;9.946;2022-12-13T03:37:58;-6.00;99.90
5842;DHT22;2947;52.276;9.946;2022-12-13T03:40:26;-6.00;99.90
5842;DHT22;2947;52.276;9.946;2022-12-13T03:42:53;-6.00;99.90
5842;DHT22;2947;52.276;9.946;2022-12-13T03:45:19;-6.00;99.90
5842;DHT22;2947;52.276;9.946;2022-12-13T03:47:45;-6.00;99.90
5842;DHT22;2947;52.276;9.946;2022-12-13T03:50:11;-6.00;99.90
5842;DHT22;2947;52.276;9.946;2022-12-13T03:52:37;-6.10;99.90
5842;DHT22;2947;52.276;9.946;2022-12-13T03:55:02;-6.00;99.90
5842;DHT22;2947;52.276;9.946;2022-12-13T03:57:28;-6.00;99.90
5842;DHT22;2947;52.276;9.946;2022-12-13T03:59:54;-6.00;99.90
5842;DHT22;2947;52.276;9.946;2022-12-13T04:02:20;-6.00;99.90
5842;DHT22;2947;52.276;9.946;2022-12-13T04:04:45;-6.10;99.90
5842;DHT22;2947;52.276;9.946;2022-12-13T04:07:11;-6.10;99.90
5842;DHT22;2947;52.276;9.946;2022-12-13T04:09:37;-6.10;99.90
5842;DHT22;2947;52.276;9.946;2022-12-13T04:12:03;-6.10;99.90
5842;DHT22;2947;52.276;9.946;2022-12-13T04:14:47;-6.20;99.90
5842;DHT22;2947;52.276;9.946;2022-12-13T04:17:13;-6.10;99.90
5842;DHT22;2947;52.276;9.946;2022-12-13T04:19:38;-6.20;99.90
5842;DHT22;2947;52.276;9.946;2022-12-13T04:22:04;-6.20;99.90
5842;DHT22;2947;52.276;9.946;2022-12-13T04:24:30;-6.30;99.90
5842;DHT22;2947;52.276;9.946;2022-12-13T04:26:56;-6.30;99.90
5842;DHT22;2947;52.276;9.946;2022-12-13T04:29:21;-6.20;99.90
5842;DHT22;2947;52.276;9.946;2022-12-13T04:31:47;-6.20;99.90
5842;DHT22;2947;52.276;9.946;2022-12-13T04:34:13;-6.20;99.90
5842;DHT22;2947;52.276;9.946;2022-12-13T04:36:39;-6.20;99.90
5842;DHT22;2947;52.276;9.946;2022-12-13T04:39:05;-6.10;99.90
5842;DHT22;2947;52.276;9.946;2022-12-13T04:41:37;-6.10;99.90
5842;DHT22;2947;52.276;9.946;2022-12-13T04:44:05;-6.10;99.90
5842;DHT22;2947;52.276;9.946;2022-12-13T04:46:32;-6.10;99.90
5842;DHT22;2947;52.276;9.946;2022-12-13T04:48:59;-6.10;99.90
5842;DHT22;2947;52.276;9.946;2022-12-13T04:51:25;-6.00;99.90
5842;DHT22;2947;52.276;9.946;2022-12-13T04:53:51;-6.00;99.90
5842;DHT22;2947;52.276;9.946;2022-12-13T04:56:17;-6.00;99.90
5842;DHT22;2947;52.276;9.946;2022-12-13T04:58:43;-6.00;99.90
5842;DHT22;2947;52.276;9.946;2022-12-13T05:01:09;-6.00;99.90
5842;DHT22;2947;52.276;9.946;2022-12-13T05:03:37;-6.00;99.90
5842;DHT22;2947;52.276;9.946;2022-12-13T05:06:07;-6.00;99.90
5842;DHT22;2947;52.276;9.946;2022-12-13T05:08:35;-6.00;99.90
5842;DHT22;2947;52.276;9.946;2022-12-13T05:11:02;-6.00;99.90
5842;DHT22;2947;52.276;9.946;2022-12-13T05:13:31;-6.00;99.90
5842;DHT22;2947;52.276;9.946;2022-12-13T05:15:58;-6.00;99.90
5842;DHT22;2947;52.276;9.946;2022-12-13T05:18:25;-6.00;99.90
5842;DHT22;2947;52.276;9.946;2022-12-13T05:20:52;-6.00;99.90
5842;DHT22;2947;52.276;9.946;2022-12-13T05:23:19;-6.00;99.90
5842;DHT22;2947;52.276;9.946;2022-12-13T05:25:46;-6.00;99.90
5842;DHT22;2947;52.276;9.946;2022-12-13T05:28:12;-6.00;99.90
5842;DHT22;2947;52.276;9.946;2022-12-13T05:30:42;-6.10;99.90
5842;DHT22;2947;52.276;9.946;2022-12-13T05:33:08;-6.10;99.90
5842;DHT22;2947;52.276;9.946;2022-12-13T05:35:34;-6.10;99.90
5842;DHT22;2947;52.276;9.946;2022-12-13T05:38:00;-6.10;99.90
5842;DHT22;2947;52.276;9.946;2022-12-13T05:40:28;-6.10;99.90
5842;DHT22;2947;52.276;9.946;2022-12-13T05:42:54;-6.10;99.90
5842;DHT22;2947;52.276;9.946;2022-12-13T05:45:20;-6.10;99.90
5842;DHT22;2947;52.276;9.946;2022-12-13T05:47:47;-6.20;99.90
5842;DHT22;2947;52.276;9.946;2022-12-13T05:50:14;-6.20;99.90
5842;DHT22;2947;52.276;9.946;2022-12-13T05:52:44;-6.30;99.90
5842;DHT22;2947;52.276;9.946;2022-12-13T05:55:10;-6.30;99.90
5842;DHT22;2947;52.276;9.946;2022-12-13T05:57:36;-6.30;99.90
5842;DHT22;2947;52.276;9.946;2022-12-13T06:00:05;-6.40;99.90
5842;DHT22;2947;52.276;9.946;2022-12-13T06:02:39;-6.30;99.90
5842;DHT22;2947;52.276;9.946;2022-12-13T06:05:07;-6.40;99.90
5842;DHT22;2947;52.276;9.946;2022-12-13T06:07:34;-6.40;99.90
5842;DHT22;2947;52.276;9.946;2022-12-13T06:10:00;-6.40;99.90
5842;DHT22;2947;52.276;9.946;2022-12-13T06:12:27;-6.50;99.90
5842;DHT22;2947;52.276;9.946;2022-12-13T06:14:52;-6.50;99.90
5842;DHT22;2947;52.276;9.946;2022-12-13T06:17:18;-6.50;99.90
5842;DHT22;2947;52.276;9.946;2022-12-13T06:19:44;-6.50;99.90
5842;DHT22;2947;52.276;9.946;2022-12-13T06:22:13;-6.50;99.90
5842;DHT22;2947;52.276;9.946;2022-12-13T06:24:38;-6.50;99.90
5842;DHT22;2947;52.276;9.946;2022-12-13T06:27:04;-6.50;99.90
5842;DHT22;2947;52.276;9.946;2022-12-13T06:29:30;-6.50;99.90
5842;DHT22;2947;52.276;9.946;2022-12-13T06:31:58;-6.50;99.90
5842;DHT22;2947;52.276;9.946;2022-12-13T06:34:25;-6.50;99.90
5842;DHT22;2947;52.276;9.946;2022-12-13T06:36:51;-6.50;99.90
5842;DHT22;2947;52.276;9.946;2022-12-13T06:39:16;-6.40;99.90
5842;DHT22;2947;52.276;9.946;2022-12-13T06:41:42;-6.40;99.90
5842;DHT22;2947;52.276;9.946;2022-12-13T06:44:08;-6.40;99.90
5842;DHT22;2947;52.276;9.946;2022-12-13T06:46:34;-6.40;99.90
5842;DHT22;2947;52.276;9.946;2022-12-13T06:49:00;-6.30;99.90
5842;DHT22;2947;52.276;9.946;2022-12-13T06:51:26;-6.30;99.90
5842;DHT22;2947;52.276;9.946;2022-12-13T06:53:52;-6.30;99.90
5842;DHT22;2947;52.276;9.946;2022-12-13T06:56:17;-6.30;99.90
5842;DHT22;2947;52.276;9.946;2022-12-13T06:58:43;-6.30;99.90
5842;DHT22;2947;52.276;9.946;2022-12-13T07:01:12;-6.20;99.90
5842;DHT22;2947;52.276;9.946;2022-12-13T07:03:39;-6.20;99.90
5842;DHT22;2947;52.276;9.946;2022-12-13T07:06:13;-6.20;99.90
5842;DHT22;2947;52.276;9.946;2022-12-13T07:08:47;-6.20;99.90
5842;DHT22;2947;52.276;9.946;2022-12-13T07:11:16;-6.20;99.90
5842;DHT22;2947;52.276;9.946;2022-12-13T07:13:43;-6.20;99.90
5842;DHT22;2947;52.276;9.946;2022-12-13T07:16:10;-6.20;99.90
5842;DHT22;2947;52.276;9.946;2022-12-13T07:18:36;-6.20;99.90
5842;DHT22;2947;52.276;9.946;2022-12-13T07:21:06;-6.20;99.90
5842;DHT22;2947;52.276;9.946;2022-12-13T07:23:37;-6.20;99.90
5842;DHT22;2947;52.276;9.946;2022-12-13T07:26:04;-6.20;99.90
5842;DHT22;2947;52.276;9.946;2022-12-13T07:28:37;-6.20;99.90
5842;DHT22;2947;52.276;9.946;2022-12-13T07:31:07;-6.20;99.90
5842;DHT22;2947;52.276;9.946;2022-12-13T07:33:35;-6.20;99.90
5842;DHT22;2947;52.276;9.946;2022-12-13T07:36:06;-6.10;99.90
5842;DHT22;2947;52.276;9.946;2022-12-13T07:38:34;-6.10;99.90
5842;DHT22;2947;52.276;9.946;2022-12-13T07:41:00;-6.10;99.90
5842;DHT22;2947;52.276;9.946;2022-12-13T07:43:27;-6.10;99.90
5842;DHT22;2947;52.276;9.946;2022-12-13T07:45:57;-6.10;99.90
5842;DHT22;2947;52.276;9.946;2022-12-13T07:48:24;-6.10;99.90
5842;DHT22;2947;52.276;9.946;2022-12-13T07:50:51;-6.10;99.90
5842;DHT22;2947;52.276;9.946;2022-12-13T07:53:17;-6.10;99.90
5842;DHT22;2947;52.276;9.946;2022-12-13T07:55:42;-6.00;99.90
5842;DHT22;2947;52.276;9.946;2022-12-13T07:58:10;-6.10;99.90
5842;DHT22;2947;52.276;9.946;2022-12-13T08:00:45;-6.10;99.90
5842;DHT22;2947;52.276;9.946;2022-12-13T08:03:11;-6.10;99.90
5842;DHT22;2947;52.276;9.946;2022-12-13T08:05:38;-6.10;99.90
5842;DHT22;2947;52.276;9.946;2022-12-13T08:08:06;-6.10;99.90
5842;DHT22;2947;52.276;9.946;2022-12-13T08:10:33;-6.10;99.90
5842;DHT22;2947;52.276;9.946;2022-12-13T08:13:01;-6.10;99.90
5842;DHT22;2947;52.276;9.946;2022-12-13T08:15:27;-6.00;99.90
5842;DHT22;2947;52.276;9.946;2022-12-13T08:17:57;-6.00;99.90
5842;DHT22;2947;52.276;9.946;2022-12-13T08:20:25;-6.00;99.90
5842;DHT22;2947;52.276;9.946;2022-12-13T08:22:55;-6.00;99.90
5842;DHT22;2947;52.276;9.946;2022-12-13T08:25:22;-5.90;99.90
5842;DHT22;2947;52.276;9.946;2022-12-13T08:27:47;-5.90;99.90
5842;DHT22;2947;52.276;9.946;2022-12-13T08:30:13;-5.90;99.90
5842;DHT22;2947;52.276;9.946;2022-12-13T08:32:39;-5.80;99.90
5842;DHT22;2947;52.276;9.946;2022-12-13T08:35:05;-5.80;99.90
5842;DHT22;2947;52.276;9.946;2022-12-13T08:37:31;-5.80;99.90
5842;DHT22;2947;52.276;9.946;2022-12-13T08:39:57;-5.70;99.90
5842;DHT22;2947;52.276;9.946;2022-12-13T08:42:22;-5.70;99.90
5842;DHT22;2947;52.276;9.946;2022-12-13T08:44:51;-5.60;99.90
5842;DHT22;2947;52.276;9.946;2022-12-13T08:47:20;-5.60;99.90
5842;DHT22;2947;52.276;9.946;2022-12-13T08:49:47;-5.60;99.90
5842;DHT22;2947;52.276;9.946;2022-12-13T08:52:13;-5.50;99.90
5842;DHT22;2947;52.276;9.946;2022-12-13T08:54:39;-5.50;99.90
5842;DHT22;2947;52.276;9.946;2022-12-13T08:57:04;-5.50;99.90
5842;DHT22;2947;52.276;9.946;2022-12-13T08:59:30;-5.40;99.90
5842;DHT22;2947;52.276;9.946;2022-12-13T09:01:56;-5.40;99.90
5842;DHT22;2947;52.276;9.946;2022-12-13T09:04:22;-5.40;99.90
5842;DHT22;2947;52.276;9.946;2022-12-13T09:06:47;-5.30;99.90
5842;DHT22;2947;52.276;9.946;2022-12-13T09:09:13;-5.30;99.90
5842;DHT22;2947;52.276;9.946;2022-12-13T09:11:39;-5.20;99.90
5842;DHT22;2947;52.276;9.946;2022-12-13T09:14:08;-5.20;99.90
5842;DHT22;2947;52.276;9.946;2022-12-13T09:16:33;-5.20;99.90
5842;DHT22;2947;52.276;9.946;2022-12-13T09:19:01;-5.10;99.90
5842;DHT22;2947;52.276;9.946;2022-12-13T09:21:28;-5.10;99.90
5842;DHT22;2947;52.276;9.946;2022-12-13T09:23:54;-5.00;99.90
5842;DHT22;2947;52.276;9.946;2022-12-13T09:26:20;-4.90;99.90
5842;DHT22;2947;52.276;9.946;2022-12-13T09:28:46;-4.90;99.90
5842;DHT22;2947;52.276;9.946;2022-12-13T09:31:14;-4.90;99.90
5842;DHT22;2947;52.276;9.946;2022-12-13T09:33:41;-4.80;99.90
5842;DHT22;2947;52.276;9.946;2022-12-13T09:36:09;-4.80;99.90
5842;DHT22;2947;52.276;9.946;2022-12-13T09:38:36;-4.80;99.90
5842;DHT22;2947;52.276;9.946;2022-12-13T09:41:14;-4.70;99.90
5842;DHT22;2947;52.276;9.946;2022-12-13T09:43:44;-4.60;99.90
5842;DHT22;2947;52.276;9.946;2022-12-13T09:46:40;-4.60;99.90
5842;DHT22;2947;52.276;9.946;2022-12-13T09:49:13;-4.50;99.90
5842;DHT22;2947;52.276;9.946;2022-12-13T09:51:43;-4.50;99.90
5842;DHT22;2947;52.276;9.946;2022-12-13T09:54:20;-4.40;99.90
5842;DHT22;2947;52.276;9.946;2022-12-13T09:56:48;-4.40;99.90
5842;DHT22;2947;52.276;9.946;2022-12-13T09:59:18;-4.30;99.90
5842;DHT22;2947;52.276;9.946;2022-12-13T10:01:49;-4.30;99.90
5842;DHT22;2947;52.276;9.946;2022-12-13T10:04:14;-4.30;99.90
5842;DHT22;2947;52.276;9.946;2022-12-13T10:06:40;-4.30;99.90
5842;DHT22;2947;52.276;9.946;2022-12-13T10:09:09;-4.20;99.90
5842;DHT22;2947;52.276;9.946;2022-12-13T10:11:46;-4.20;99.90
5842;DHT22;2947;52.276;9.946;2022-12-13T10:14:24;-4.10;99.90
5842;DHT22;2947;52.276;9.946;2022-12-13T10:16:55;-4.00;99.90
5842;DHT22;2947;52.276;9.946;2022-12-13T10:19:40;-4.00;99.90
5842;DHT22;2947;52.276;9.946;2022-12-13T10:22:12;-3.90;99.90
5842;DHT22;2947;52.276;9.946;2022-12-13T10:24:57;-3.90;99.90
5842;DHT22;2947;52.276;9.946;2022-12-13T10:27:38;-3.80;99.90
5842;DHT22;2947;52.276;9.946;2022-12-13T10:30:21;-3.70;99.90
5842;DHT22;2947;52.276;9.946;2022-12-13T10:32:59;-3.60;99.90
5842;DHT22;2947;52.276;9.946;2022-12-13T10:35:27;-3.50;99.90
5842;DHT22;2947;52.276;9.946;2022-12-13T10:37:56;-3.50;99.90
5842;DHT22;2947;52.276;9.946;2022-12-13T10:40:29;-3.40;99.90
5842;DHT22;2947;52.276;9.946;2022-12-13T10:43:23;-3.30;99.90
5842;DHT22;2947;52.276;9.946;2022-12-13T10:45:59;-3.30;99.90
5842;DHT22;2947;52.276;9.946;2022-12-13T10:48:45;-3.20;99.90
5842;DHT22;2947;52.276;9.946;2022-12-13T10:51:15;-3.10;99.90
5842;DHT22;2947;52.276;9.946;2022-12-13T10:53:53;-3.00;99.90
5842;DHT22;2947;52.276;9.946;2022-12-13T10:56:21;-3.00;99.90
5842;DHT22;2947;52.276;9.946;2022-12-13T10:58:51;-2.90;99.90
5842;DHT22;2947;52.276;9.946;2022-12-13T11:01:33;-2.90;99.90
5842;DHT22;2947;52.276;9.946;2022-12-13T11:04:04;-2.80;99.90
5842;DHT22;2947;52.276;9.946;2022-12-13T11:06:46;-2.70;99.90
5842;DHT22;2947;52.276;9.946;2022-12-13T11:11:59;-2.50;99.90
5842;DHT22;2947;52.276;9.946;2022-12-13T11:14:32;-2.50;99.90
5842;DHT22;2947;52.276;9.946;2022-12-13T11:17:14;-2.40;99.90
5842;DHT22;2947;52.276;9.946;2022-12-13T11:19:47;-2.30;99.40
5842;DHT22;2947;52.276;9.946;2022-12-13T11:22:40;-2.20;96.60
5842;DHT22;2947;52.276;9.946;2022-12-13T11:25:22;-2.20;91.90
5842;DHT22;2947;52.276;9.946;2022-12-13T11:31:04;-2.10;60.20
5842;DHT22;2947;52.276;9.946;2022-12-13T11:34:05;-2.00;84.50
5842;DHT22;2947;52.276;9.946;2022-12-13T11:36:46;-1.90;80.10
5842;DHT22;2947;52.276;9.946;2022-12-13T11:39:30;-1.80;67.40
5842;DHT22;2947;52.276;9.946;2022-12-13T11:47:43;-1.70;48.90
5842;DHT22;2947;52.276;9.946;2022-12-13T11:50:17;-1.60;49.30
5842;DHT22;2947;52.276;9.946;2022-12-13T11:52:52;-1.60;48.20
5842;DHT22;2947;52.276;9.946;2022-12-13T11:55:35;-1.50;43.40
5842;DHT22;2947;52.276;9.946;2022-12-13T12:00:51;-1.40;44.60
5842;DHT22;2947;52.276;9.946;2022-12-13T12:03:44;-1.30;49.00
5842;DHT22;2947;52.276;9.946;2022-12-13T12:06:19;-1.30;37.60
5842;DHT22;2947;52.276;9.946;2022-12-13T12:08:58;-1.20;28.90
5842;DHT22;2947;52.276;9.946;2022-12-13T12:17:03;-1.00;35.70
5842;DHT22;2947;52.276;9.946;2022-12-13T12:19:38;-1.00;28.50
5842;DHT22;2947;52.276;9.946;2022-12-13T12:37:47;-0.60;1.00
5842;DHT22;2947;52.276;9.946;2022-12-13T12:40:36;-0.40;1.00
5842;DHT22;2947;52.276;9.946;2022-12-13T12:43:30;-0.30;1.00
5842;DHT22;2947;52.276;9.946;2022-12-13T12:46:38;-0.40;1.00
5842;DHT22;2947;52.276;9.946;2022-12-13T12:52:08;-0.30;1.00
5842;DHT22;2947;52.276;9.946;2022-12-13T12:58:04;-0.20;1.00
5842;DHT22;2947;52.276;9.946;2022-12-13T13:03:34;-0.20;1.00
5842;DHT22;2947;52.276;9.946;2022-12-13T13:06:10;-0.10;1.00
5842;DHT22;2947;52.276;9.946;2022-12-13T13:08:51;-0.10;1.00
5842;DHT22;2947;52.276;9.946;2022-12-13T13:11:24;-0.10;1.00
5842;DHT22;2947;52.276;9.946;2022-12-13T13:14:40;-0.10;1.00
5842;DHT22;2947;52.276;9.946;2022-12-13T13:19:53;0.00;1.00
5842;DHT22;2947;52.276;9.946;2022-12-13T13:22:37;0.00;1.00
5842;DHT22;2947;52.276;9.946;2022-12-13T13:27:42;0.20;1.00
5842;DHT22;2947;52.276;9.946;2022-12-13T13:32:47;0.10;1.00
5842;DHT22;2947;52.276;9.946;2022-12-13T13:38:01;0.20;1.00
5842;DHT22;2947;52.276;9.946;2022-12-13T13:40:34;0.30;1.00
5842;DHT22;2947;52.276;9.946;2022-12-13T13:45:36;0.20;1.00
5842;DHT22;2947;52.276;9.946;2022-12-13T13:51:36;0.20;1.00
5842;DHT22;2947;52.276;9.946;2022-12-13T14:00:22;0.10;1.00
5842;DHT22;2947;52.276;9.946;2022-12-13T14:08:34;0.00;1.00
5842;DHT22;2947;52.276;9.946;2022-12-13T14:27:51;-0.20;1.00
5842;DHT22;2947;52.276;9.946;2022-12-13T14:30:21;-0.20;1.00
5842;DHT22;2947;52.276;9.946;2022-12-13T14:32:48;-0.20;1.00
5842;DHT22;2947;52.276;9.946;2022-12-13T14:35:29;-0.20;1.00
5842;DHT22;2947;52.276;9.946;2022-12-13T14:38:01;-0.30;1.00
5842;DHT22;2947;52.276;9.946;2022-12-13T14:40:31;-0.30;1.00
5842;DHT22;2947;52.276;9.946;2022-12-13T14:43:01;-0.30;1.00
5842;DHT22;2947;52.276;9.946;2022-12-13T14:45:29;-0.40;1.00
5842;DHT22;2947;52.276;9.946;2022-12-13T14:48:02;-0.40;1.00
5842;DHT22;2947;52.276;9.946;2022-12-13T14:50:33;-0.40;1.00
5842;DHT22;2947;52.276;9.946;2022-12-13T14:53:00;-0.50;1.00
5842;DHT22;2947;52.276;9.946;2022-12-13T14:55:35;-0.50;1.00
5842;DHT22;2947;52.276;9.946;2022-12-13T14:58:13;-0.50;1.00
5842;DHT22;2947;52.276;9.946;2022-12-13T15:00:42;-0.50;1.00
5842;DHT22;2947;52.276;9.946;2022-12-13T15:03:20;-0.60;1.00
5842;DHT22;2947;52.276;9.946;2022-12-13T15:05:47;-0.60;1.00
5842;DHT22;2947;52.276;9.946;2022-12-13T15:08:18;-0.70;1.00
5842;DHT22;2947;52.276;9.946;2022-12-13T15:10:46;-0.70;2.60
5842;DHT22;2947;52.276;9.946;2022-12-13T15:13:42;-0.70;10.10
5842;DHT22;2947;52.276;9.946;2022-12-13T15:19:13;-0.80;9.00
5842;DHT22;2947;52.276;9.946;2022-12-13T15:21:40;-0.80;15.50
5842;DHT22;2947;52.276;9.946;2022-12-13T15:24:10;-0.90;13.50
5842;DHT22;2947;52.276;9.946;2022-12-13T15:26:37;-1.00;19.00
5842;DHT22;2947;52.276;9.946;2022-12-13T15:29:05;-1.00;23.20
5842;DHT22;2947;52.276;9.946;2022-12-13T15:31:32;-1.10;22.10
5842;DHT22;2947;52.276;9.946;2022-12-13T15:34:39;-1.20;22.90
5842;DHT22;2947;52.276;9.946;2022-12-13T15:39:42;-1.30;34.60
5842;DHT22;2947;52.276;9.946;2022-12-13T15:42:36;-1.40;39.70
5842;DHT22;2947;52.276;9.946;2022-12-13T15:45:05;-1.40;30.70
5842;DHT22;2947;52.276;9.946;2022-12-13T15:47:46;-1.40;33.60
5842;DHT22;2947;52.276;9.946;2022-12-13T15:50:38;-1.40;30.70
5842;DHT22;2947;52.276;9.946;2022-12-13T15:53:20;-1.40;24.00
5842;DHT22;2947;52.276;9.946;2022-12-13T15:55:49;-1.50;17.20
5842;DHT22;2947;52.276;9.946;2022-12-13T15:58:33;-1.60;15.70
5842;DHT22;2947;52.276;9.946;2022-12-13T16:01:00;-1.70;18.70
5842;DHT22;2947;52.276;9.946;2022-12-13T16:03:50;-1.70;23.40
5842;DHT22;2947;52.276;9.946;2022-12-13T16:06:20;-1.70;26.70
5842;DHT22;2947;52.276;9.946;2022-12-13T16:08:50;-1.70;29.20
5842;DHT22;2947;52.276;9.946;2022-12-13T16:11:36;-1.80;33.40
5842;DHT22;2947;52.276;9.946;2022-12-13T16:17:22;-1.80;30.30
5842;DHT22;2947;52.276;9.946;2022-12-13T16:19:49;-1.80;35.70
5842;DHT22;2947;52.276;9.946;2022-12-13T16:22:18;-1.80;27.10
5842;DHT22;2947;52.276;9.946;2022-12-13T16:24:47;-1.80;26.90
5842;DHT22;2947;52.276;9.946;2022-12-13T16:27:13;-1.90;28.40
5842;DHT22;2947;52.276;9.946;2022-12-13T16:29:39;-1.90;25.70
5842;DHT22;2947;52.276;9.946;2022-12-13T16:32:05;-2.00;22.10
5842;DHT22;2947;52.276;9.946;2022-12-13T16:34:30;-2.00;24.80
5842;DHT22;2947;52.276;9.946;2022-12-13T16:36:56;-2.10;17.90
5842;DHT22;2947;52.276;9.946;2022-12-13T16:39:24;-2.10;19.20
5842;DHT22;2947;52.276;9.946;2022-12-13T16:41:51;-2.20;14.90
5842;DHT22;2947;52.276;9.946;2022-12-13T16:44:34;-2.30;13.90
5842;DHT22;2947;52.276;9.946;2022-12-13T16:47:02;-2.40;6.80
5842;DHT22;2947;52.276;9.946;2022-12-13T16:49:31;-2.40;4.60
5842;DHT22;2947;52.276;9.946;2022-12-13T16:51:57;-2.40;3.00
5842;DHT22;2947;52.276;9.946;2022-12-13T16:54:24;-2.40;1.00
5842;DHT22;2947;52.276;9.946;2022-12-13T16:56:51;-2.50;1.00
5842;DHT22;2947;52.276;9.946;2022-12-13T16:59:20;-2.50;1.00
5842;DHT22;2947;52.276;9.946;2022-12-13T17:01:48;-2.60;1.00
5842;DHT22;2947;52.276;9.946;2022-12-13T17:04:19;-2.60;1.00
5842;DHT22;2947;52.276;9.946;2022-12-13T17:06:48;-2.60;1.00
5842;DHT22;2947;52.276;9.946;2022-12-13T17:09:14;-2.60;1.00
5842;DHT22;2947;52.276;9.946;2022-12-13T17:11:40;-2.70;1.00
5842;DHT22;2947;52.276;9.946;2022-12-13T17:14:06;-2.70;1.00
5842;DHT22;2947;52.276;9.946;2022-12-13T17:16:31;-2.80;1.00
5842;DHT22;2947;52.276;9.946;2022-12-13T17:18:57;-2.80;1.00
5842;DHT22;2947;52.276;9.946;2022-12-13T17:21:24;-2.90;1.00
5842;DHT22;2947;52.276;9.946;2022-12-13T17:23:54;-3.00;1.00
5842;DHT22;2947;52.276;9.946;2022-12-13T17:26:25;-3.10;1.00
5842;DHT22;2947;52.276;9.946;2022-12-13T17:28:52;-3.10;8.70
5842;DHT22;2947;52.276;9.946;2022-12-13T17:31:19;-3.10;7.30
5842;DHT22;2947;52.276;9.946;2022-12-13T17:33:45;-3.10;2.60
5842;DHT22;2947;52.276;9.946;2022-12-13T17:36:12;-3.10;1.00
5842;DHT22;2947;52.276;9.946;2022-12-13T17:38:44;-3.10;1.00
5842;DHT22;2947;52.276;9.946;2022-12-13T17:41:14;-3.20;1.00
5842;DHT22;2947;52.276;9.946;2022-12-13T17:43:40;-3.20;1.00
5842;DHT22;2947;52.276;9.946;2022-12-13T17:46:10;-3.20;9.80
5842;DHT22;2947;52.276;9.946;2022-12-13T17:48:37;-3.20;2.70
5842;DHT22;2947;52.276;9.946;2022-12-13T17:51:03;-3.20;1.00
5842;DHT22;2947;52.276;9.946;2022-12-13T17:53:29;-3.20;1.00
5842;DHT22;2947;52.276;9.946;2022-12-13T17:56:00;-3.20;1.00
5842;DHT22;2947;52.276;9.946;2022-12-13T17:58:28;-3.20;1.00
5842;DHT22;2947;52.276;9.946;2022-12-13T18:00:57;-3.20;1.00
5842;DHT22;2947;52.276;9.946;2022-12-13T18:03:23;-3.20;1.00
5842;DHT22;2947;52.276;9.946;2022-12-13T18:05:58;-3.20;1.00
5842;DHT22;2947;52.276;9.946;2022-12-13T18:08:25;-3.20;1.00
5842;DHT22;2947;52.276;9.946;2022-12-13T18:10:55;-3.20;1.00
5842;DHT22;2947;52.276;9.946;2022-12-13T18:13:23;-3.20;1.00
5842;DHT22;2947;52.276;9.946;2022-12-13T18:15:49;-3.30;1.00
5842;DHT22;2947;52.276;9.946;2022-12-13T18:18:15;-3.30;1.00
5842;DHT22;2947;52.276;9.946;2022-12-13T18:20:41;-3.30;1.00
5842;DHT22;2947;52.276;9.946;2022-12-13T18:23:08;-3.30;1.00
5842;DHT22;2947;52.276;9.946;2022-12-13T18:25:34;-3.40;1.00
5842;DHT22;2947;52.276;9.946;2022-12-13T18:28:00;-3.40;1.00
5842;DHT22;2947;52.276;9.946;2022-12-13T18:30:26;-3.50;1.00
5842;DHT22;2947;52.276;9.946;2022-12-13T18:32:53;-3.40;1.00
5842;DHT22;2947;52.276;9.946;2022-12-13T18:35:18;-3.50;2.10